sensor_id;sensor_type;location;lat;lon;timestamp;pressure;altitude;pressure_sealevel;temperature;humidity
6134;BME280;3098;42.678;23.364;2023-04-06T00:00:54;94628.44;;;-0.79;100.00
6134;BME280;3098;42.678;23.364;2023-04-06T00:03:21;94554.50;;;-1.26;100.00
6134;BME280;3098;42.678;23.364;2023-04-06T00:05:48;94666.75;;;-0.52;100.00
6134;BME280;3098;42.678;23.364;2023-04-06T00:08:15;94662.09;;;-0.50;100.00
6134;BME280;3098;42.678;23.364;2023-04-06T00:10:42;94590.78;;;-0.93;100.00
6134;BME280;3098;42.678;23.364;2023-04-06T00:13:10;94484.00;;;-1.51;100.00
6134;BME280;3098;42.678;23.364;2023-04-06T00:15:37;94646.28;;;-0.44;100.00
6134;BME280;3098;42.678;23.364;2023-04-06T00:18:06;94572.84;;;-0.94;100.00
6134;BME280;3098;42.678;23.364;2023-04-06T00:20:33;94645.97;;;-0.47;100.00
6134;BME280;3098;42.678;23.364;2023-04-06T00:23:00;94647.84;;;-0.43;100.00
6134;BME280;3098;42.678;23.364;2023-04-06T00:25:27;94617.72;;;-0.61;100.00
6134;BME280;3098;42.678;23.364;2023-04-06T00:27:54;94591.53;;;-0.71;100.00
6134;BME280;3098;42.678;23.364;2023-04-06T00:30:21;94568.88;;;-0.75;100.00
6134;BME280;3098;42.678;23.364;2023-04-06T00:32:49;94570.44;;;-0.74;100.00
6134;BME280;3098;42.678;23.364;2023-04-06T00:35:18;94609.50;;;-0.47;100.00
6134;BME280;3098;42.678;23.364;2023-04-06T00:37:46;94619.25;;;-0.38;100.00
6134;BME280;3098;42.678;23.364;2023-04-06T00:40:13;94630.09;;;-0.19;100.00
6134;BME280;3098;42.678;23.364;2023-04-06T00:42:41;94625.38;;;-0.22;100.00
6134;BME280;3098;42.678;23.364;2023-04-06T00:45:09;94625.47;;;-0.12;100.00
6134;BME280;3098;42.678;23.364;2023-04-06T00:47:37;94594.84;;;-0.27;100.00
6134;BME280;3098;42.678;23.364;2023-04-06T00:50:05;94615.56;;;-0.10;100.00
6134;BME280;3098;42.678;23.364;2023-04-06T00:52:33;94552.72;;;-0.45;100.00
6134;BME280;3098;42.678;23.364;2023-04-06T00:55:01;94622.94;;;-0.02;100.00
6134;BME280;3098;42.678;23.364;2023-04-06T00:57:28;94584.22;;;-0.20;100.00
6134;BME280;3098;42.678;23.364;2023-04-06T00:59:56;94605.59;;;-0.18;100.00
6134;BME280;3098;42.678;23.364;2023-04-06T01:02:23;94412.66;;;-1.34;100.00
6134;BME280;3098;42.678;23.364;2023-04-06T01:04:51;94620.91;;;0.05;100.00
6134;BME280;3098;42.678;23.364;2023-04-06T01:07:19;94584.78;;;-0.13;100.00
6134;BME280;3098;42.678;23.364;2023-04-06T01:09:48;94550.97;;;-0.40;100.00
6134;BME280;3098;42.678;23.364;2023-04-06T01:12:15;94629.31;;;0.12;100.00
6134;BME280;3098;42.678;23.364;2023-04-06T01:14:43;94605.38;;;0.20;100.00
6134;BME280;3098;42.678;23.364;2023-04-06T01:17:10;94580.72;;;0.01;100.00
6134;BME280;3098;42.678;23.364;2023-04-06T01:19:37;94542.53;;;-0.20;100.00
6134;BME280;3098;42.678;23.364;2023-04-06T01:22:05;94610.09;;;0.23;100.00
6134;BME280;3098;42.678;23.364;2023-04-06T01:24:34;94604.16;;;0.28;100.00
6134;BME280;3098;42.678;23.364;2023-04-06T01:27:02;94589.41;;;0.12;100.00
6134;BME280;3098;42.678;23.364;2023-04-06T01:29:29;94567.50;;;0.08;100.00
6134;BME280;3098;42.678;23.364;2023-04-06T01:31:57;94581.41;;;0.23;100.00
6134;BME280;3098;42.678;23.364;2023-04-06T01:34:23;94593.16;;;0.26;100.00
6134;BME280;3098;42.678;23.364;2023-04-06T01:36:51;94594.72;;;0.22;100.00
6134;BME280;3098;42.678;23.364;2023-04-06T01:39:18;94593.16;;;0.26;100.00
6134;BME280;3098;42.678;23.364;2023-04-06T01:41:47;94580.66;;;0.28;100.00
6134;BME280;3098;42.678;23.364;2023-04-06T01:44:16;94580.88;;;0.21;100.00
6134;BME280;3098;42.678;23.364;2023-04-06T01:46:43;94589.31;;;0.33;100.00
6134;BME280;3098;42.678;23.364;2023-04-06T01:49:11;94550.59;;;0.20;100.00
6134;BME280;3098;42.678;23.364;2023-04-06T01:51:38;94571.56;;;0.30;100.00
6134;BME280;3098;42.678;23.364;2023-04-06T01:54:05;94582.53;;;0.37;100.00
6134;BME280;3098;42.678;23.364;2023-04-06T01:56:32;94585.41;;;0.36;100.00
6134;BME280;3098;42.678;23.364;2023-04-06T01:59:02;94576.78;;;0.35;100.00
6134;BME280;3098;42.678;23.364;2023-04-06T02:01:28;94523.16;;;0.08;100.00
6134;BME280;3098;42.678;23.364;2023-04-06T02:03:56;94573.66;;;0.33;100.00
6134;BME280;3098;42.678;23.364;2023-04-06T02:06:23;94524.72;;;0.09;100.00
6134;BME280;3098;42.678;23.364;2023-04-06T02:08:50;94537.84;;;0.24;100.00
6134;BME280;3098;42.678;23.364;2023-04-06T02:11:17;94549.59;;;0.26;100.00
6134;BME280;3098;42.678;23.364;2023-04-06T02:13:44;94578.13;;;0.43;100.00
6134;BME280;3098;42.678;23.364;2023-04-06T02:16:13;94578.41;;;0.46;100.00
6134;BME280;3098;42.678;23.364;2023-04-06T02:18:40;94543.59;;;0.26;100.00
6134;BME280;3098;42.678;23.364;2023-04-06T02:21:07;94574.50;;;0.44;100.00
6134;BME280;3098;42.678;23.364;2023-04-06T02:23:34;94570.34;;;0.48;100.00
6134;BME280;3098;42.678;23.364;2023-04-06T02:26:01;94570.88;;;0.45;100.00
6134;BME280;3098;42.678;23.364;2023-04-06T02:28:28;94559.06;;;0.37;100.00
6134;BME280;3098;42.678;23.364;2023-04-06T02:30:55;94493.38;;;-0.02;100.00
6134;BME280;3098;42.678;23.364;2023-04-06T02:33:24;94529.19;;;0.13;100.00
6134;BME280;3098;42.678;23.364;2023-04-06T02:35:51;94573.50;;;0.50;100.00
6134;BME280;3098;42.678;23.364;2023-04-06T02:38:18;94569.81;;;0.46;100.00
6134;BME280;3098;42.678;23.364;2023-04-06T02:40:46;94575.78;;;0.41;100.00
6134;BME280;3098;42.678;23.364;2023-04-06T02:43:13;94498.28;;;-0.10;100.00
6134;BME280;3098;42.678;23.364;2023-04-06T02:45:40;94580.72;;;0.38;100.00
6134;BME280;3098;42.678;23.364;2023-04-06T02:48:11;94585.66;;;0.34;100.00
6134;BME280;3098;42.678;23.364;2023-04-06T02:50:39;94513.94;;;-0.05;100.00
6134;BME280;3098;42.678;23.364;2023-04-06T02:53:06;94562.41;;;0.28;100.00
6134;BME280;3098;42.678;23.364;2023-04-06T02:55:33;94439.66;;;-0.49;100.00
6134;BME280;3098;42.678;23.364;2023-04-06T02:58:00;94566.13;;;0.37;100.00
6134;BME280;3098;42.678;23.364;2023-04-06T03:00:27;94569.00;;;0.40;100.00
6134;BME280;3098;42.678;23.364;2023-04-06T03:02:53;94573.16;;;0.36;100.00
6134;BME280;3098;42.678;23.364;2023-04-06T03:05:20;94575.72;;;0.31;100.00
6134;BME280;3098;42.678;23.364;2023-04-06T03:07:49;94565.84;;;0.33;100.00
6134;BME280;3098;42.678;23.364;2023-04-06T03:10:17;94570.31;;;0.43;100.00
6134;BME280;3098;42.678;23.364;2023-04-06T03:12:44;94538.63;;;0.19;100.00
6134;BME280;3098;42.678;23.364;2023-04-06T03:15:11;94550.19;;;0.33;100.00
6134;BME280;3098;42.678;23.364;2023-04-06T03:17:38;94561.72;;;0.42;100.00
6134;BME280;3098;42.678;23.364;2023-04-06T03:20:06;94559.63;;;0.44;100.00
6134;BME280;3098;42.678;23.364;2023-04-06T03:22:33;94538.66;;;0.24;100.00
6134;BME280;3098;42.678;23.364;2023-04-06T03:25:01;94564.88;;;0.49;100.00
6134;BME280;3098;42.678;23.364;2023-04-06T03:27:28;94565.91;;;0.48;100.00
6134;BME280;3098;42.678;23.364;2023-04-06T03:29:55;94467.78;;;-0.10;100.00
6134;BME280;3098;42.678;23.364;2023-04-06T03:32:22;94562.25;;;0.49;99.82
6134;BME280;3098;42.678;23.364;2023-04-06T03:34:49;94569.31;;;0.49;99.62
6134;BME280;3098;42.678;23.364;2023-04-06T03:37:16;94556.00;;;0.50;99.47
6134;BME280;3098;42.678;23.364;2023-04-06T03:39:43;94554.69;;;0.48;99.32
6134;BME280;3098;42.678;23.364;2023-04-06T03:42:12;94520.47;;;0.39;99.44
6134;BME280;3098;42.678;23.364;2023-04-06T03:44:39;94562.06;;;0.61;99.12
6134;BME280;3098;42.678;23.364;2023-04-06T03:47:06;94563.88;;;0.61;99.02
6134;BME280;3098;42.678;23.364;2023-04-06T03:49:33;94512.34;;;0.31;98.67
6134;BME280;3098;42.678;23.364;2023-04-06T03:52:01;94504.75;;;0.29;98.36
6134;BME280;3098;42.678;23.364;2023-04-06T03:54:28;94397.25;;;-0.40;97.92
6134;BME280;3098;42.678;23.364;2023-04-06T03:56:55;94558.13;;;0.58;98.08
6134;BME280;3098;42.678;23.364;2023-04-06T03:59:23;94548.22;;;0.61;98.00
6134;BME280;3098;42.678;23.364;2023-04-06T04:01:51;94541.38;;;0.49;98.19
6134;BME280;3098;42.678;23.364;2023-04-06T04:04:17;94561.81;;;0.63;97.98
6134;BME280;3098;42.678;23.364;2023-04-06T04:06:45;94561.84;;;0.68;98.32
6134;BME280;3098;42.678;23.364;2023-04-06T04:09:12;94523.63;;;0.41;100.00
6134;BME280;3098;42.678;23.364;2023-04-06T04:11:39;94431.50;;;-0.21;100.00
6134;BME280;3098;42.678;23.364;2023-04-06T04:14:06;94570.91;;;0.55;100.00
6134;BME280;3098;42.678;23.364;2023-04-06T04:16:35;94565.97;;;0.58;100.00
6134;BME280;3098;42.678;23.364;2023-04-06T04:19:02;94547.13;;;0.46;100.00
6134;BME280;3098;42.678;23.364;2023-04-06T04:21:30;94550.03;;;0.55;99.75
6134;BME280;3098;42.678;23.364;2023-04-06T04:23:57;94567.81;;;0.63;99.61
6134;BME280;3098;42.678;23.364;2023-04-06T04:26:24;94562.09;;;0.71;99.26
6134;BME280;3098;42.678;23.364;2023-04-06T04:28:51;94556.81;;;0.56;99.15
6134;BME280;3098;42.678;23.364;2023-04-06T04:31:19;94561.88;;;0.73;99.37
6134;BME280;3098;42.678;23.364;2023-04-06T04:33:49;94532.34;;;0.67;99.56
6134;BME280;3098;42.678;23.364;2023-04-06T04:36:16;94564.50;;;0.83;99.20
6134;BME280;3098;42.678;23.364;2023-04-06T04:38:43;94566.59;;;0.86;98.93
6134;BME280;3098;42.678;23.364;2023-04-06T04:41:10;94566.09;;;0.84;98.25
6134;BME280;3098;42.678;23.364;2023-04-06T04:43:39;94571.88;;;0.96;98.00
6134;BME280;3098;42.678;23.364;2023-04-06T04:46:06;94554.88;;;0.88;97.32
6134;BME280;3098;42.678;23.364;2023-04-06T04:48:33;94564.84;;;1.01;97.00
6134;BME280;3098;42.678;23.364;2023-04-06T04:51:04;94566.16;;;1.09;97.21
6134;BME280;3098;42.678;23.364;2023-04-06T04:53:31;94540.78;;;0.94;96.04
6134;BME280;3098;42.678;23.364;2023-04-06T04:55:59;94558.91;;;1.16;96.38
6134;BME280;3098;42.678;23.364;2023-04-06T04:58:26;94563.84;;;1.23;96.19
6134;BME280;3098;42.678;23.364;2023-04-06T05:00:54;94564.13;;;1.16;95.50
6134;BME280;3098;42.678;23.364;2023-04-06T05:03:23;94515.47;;;0.90;95.71
6134;BME280;3098;42.678;23.364;2023-04-06T05:05:51;94475.97;;;0.66;95.27
6134;BME280;3098;42.678;23.364;2023-04-06T05:08:20;94491.13;;;0.69;95.73
6134;BME280;3098;42.678;23.364;2023-04-06T05:10:47;94548.97;;;1.18;95.96
6134;BME280;3098;42.678;23.364;2023-04-06T05:13:15;94564.94;;;1.32;96.17
6134;BME280;3098;42.678;23.364;2023-04-06T05:15:42;94576.69;;;1.29;95.74
6134;BME280;3098;42.678;23.364;2023-04-06T05:18:09;94341.84;;;-0.20;95.86
6134;BME280;3098;42.678;23.364;2023-04-06T05:20:38;94572.25;;;1.30;95.94
6134;BME280;3098;42.678;23.364;2023-04-06T05:23:05;94561.00;;;1.24;96.12
6134;BME280;3098;42.678;23.364;2023-04-06T05:25:34;94533.78;;;1.05;96.17
6134;BME280;3098;42.678;23.364;2023-04-06T05:28:01;94570.94;;;1.37;96.37
6134;BME280;3098;42.678;23.364;2023-04-06T05:30:28;94541.13;;;1.13;96.29
6134;BME280;3098;42.678;23.364;2023-04-06T05:32:56;94495.13;;;1.02;96.25
6134;BME280;3098;42.678;23.364;2023-04-06T05:35:23;94574.34;;;1.38;96.64
6134;BME280;3098;42.678;23.364;2023-04-06T05:37:50;94577.72;;;1.28;97.53
6134;BME280;3098;42.678;23.364;2023-04-06T05:40:17;94524.88;;;0.96;97.87
6134;BME280;3098;42.678;23.364;2023-04-06T05:42:46;94569.34;;;1.21;98.38
6134;BME280;3098;42.678;23.364;2023-04-06T05:45:14;94485.59;;;0.61;98.72
6134;BME280;3098;42.678;23.364;2023-04-06T05:47:44;94566.78;;;1.36;98.47
6134;BME280;3098;42.678;23.364;2023-04-06T05:50:12;94499.56;;;1.01;98.36
6134;BME280;3098;42.678;23.364;2023-04-06T05:52:39;94565.25;;;1.55;98.69
6134;BME280;3098;42.678;23.364;2023-04-06T05:55:09;94569.91;;;1.43;98.19
6134;BME280;3098;42.678;23.364;2023-04-06T05:57:36;94563.63;;;1.34;98.80
6134;BME280;3098;42.678;23.364;2023-04-06T06:00:07;94456.09;;;0.50;99.80
6134;BME280;3098;42.678;23.364;2023-04-06T06:02:35;94561.25;;;1.23;100.00
6134;BME280;3098;42.678;23.364;2023-04-06T06:05:03;94554.19;;;1.18;100.00
6134;BME280;3098;42.678;23.364;2023-04-06T06:07:30;94564.66;;;1.23;100.00
6134;BME280;3098;42.678;23.364;2023-04-06T06:09:58;94563.66;;;1.54;100.00
6134;BME280;3098;42.678;23.364;2023-04-06T06:12:25;94534.13;;;1.39;99.44
6134;BME280;3098;42.678;23.364;2023-04-06T06:14:52;94561.84;;;1.65;99.96
6134;BME280;3098;42.678;23.364;2023-04-06T06:17:20;94541.72;;;1.55;99.36
6134;BME280;3098;42.678;23.364;2023-04-06T06:19:47;94563.16;;;1.47;100.00
6134;BME280;3098;42.678;23.364;2023-04-06T06:22:14;94529.13;;;1.27;100.00
6134;BME280;3098;42.678;23.364;2023-04-06T06:24:42;94567.88;;;1.60;100.00
6134;BME280;3098;42.678;23.364;2023-04-06T06:27:09;94570.75;;;1.69;100.00
6134;BME280;3098;42.678;23.364;2023-04-06T06:29:36;94562.41;;;1.87;98.74
6134;BME280;3098;42.678;23.364;2023-04-06T06:32:03;94485.78;;;1.51;97.86
6134;BME280;3098;42.678;23.364;2023-04-06T06:34:32;94545.38;;;2.20;96.40
6134;BME280;3098;42.678;23.364;2023-04-06T06:36:59;94554.75;;;2.51;95.85
6134;BME280;3098;42.678;23.364;2023-04-06T06:39:27;94512.69;;;2.17;94.49
6134;BME280;3098;42.678;23.364;2023-04-06T06:41:54;94537.72;;;2.49;94.80
6134;BME280;3098;42.678;23.364;2023-04-06T06:44:22;94554.09;;;2.89;93.14
6134;BME280;3098;42.678;23.364;2023-04-06T06:46:49;94521.63;;;2.85;92.41
6134;BME280;3098;42.678;23.364;2023-04-06T06:49:16;94558.66;;;3.28;91.01
6134;BME280;3098;42.678;23.364;2023-04-06T06:51:46;94559.94;;;3.30;89.77
6134;BME280;3098;42.678;23.364;2023-04-06T06:54:13;94557.34;;;3.69;88.45
6134;BME280;3098;42.678;23.364;2023-04-06T06:56:40;94561.34;;;3.95;86.66
6134;BME280;3098;42.678;23.364;2023-04-06T06:59:08;94490.63;;;3.80;84.54
6134;BME280;3098;42.678;23.364;2023-04-06T07:01:36;94556.31;;;4.33;83.17
6134;BME280;3098;42.678;23.364;2023-04-06T07:04:03;94303.31;;;2.71;82.21
6134;BME280;3098;42.678;23.364;2023-04-06T07:06:31;94529.38;;;4.98;78.73
6134;BME280;3098;42.678;23.364;2023-04-06T07:09:01;94539.13;;;5.16;74.81
6134;BME280;3098;42.678;23.364;2023-04-06T07:11:29;94430.81;;;5.84;69.49
6134;BME280;3098;42.678;23.364;2023-04-06T07:13:56;94518.47;;;6.63;65.38
6134;BME280;3098;42.678;23.364;2023-04-06T07:16:24;94509.97;;;6.52;64.00
6134;BME280;3098;42.678;23.364;2023-04-06T07:18:51;94293.16;;;4.78;67.32
6134;BME280;3098;42.678;23.364;2023-04-06T07:21:19;94489.16;;;5.72;66.17
6134;BME280;3098;42.678;23.364;2023-04-06T07:23:45;94489.31;;;6.13;65.57
6134;BME280;3098;42.678;23.364;2023-04-06T07:26:18;94492.50;;;6.56;62.52
6134;BME280;3098;42.678;23.364;2023-04-06T07:28:46;94548.84;;;6.28;65.79
6134;BME280;3098;42.678;23.364;2023-04-06T07:31:14;94482.63;;;6.48;63.08
6134;BME280;3098;42.678;23.364;2023-04-06T07:33:41;94546.50;;;7.00;62.45
6134;BME280;3098;42.678;23.364;2023-04-06T07:36:09;94466.06;;;7.24;58.32
6134;BME280;3098;42.678;23.364;2023-04-06T07:38:37;94530.13;;;6.29;62.13
6134;BME280;3098;42.678;23.364;2023-04-06T07:41:07;94516.75;;;5.75;65.31
6134;BME280;3098;42.678;23.364;2023-04-06T07:43:41;94527.66;;;6.19;65.77
6134;BME280;3098;42.678;23.364;2023-04-06T07:46:09;94458.13;;;6.48;60.43
6134;BME280;3098;42.678;23.364;2023-04-06T07:48:39;94553.09;;;7.51;60.51
6134;BME280;3098;42.678;23.364;2023-04-06T07:51:10;94556.31;;;6.53;60.18
6134;BME280;3098;42.678;23.364;2023-04-06T07:53:40;94522.72;;;6.45;61.54
6134;BME280;3098;42.678;23.364;2023-04-06T07:56:08;94551.84;;;7.22;59.90
6134;BME280;3098;42.678;23.364;2023-04-06T07:58:39;94546.38;;;7.45;58.92
6134;BME280;3098;42.678;23.364;2023-04-06T08:01:13;94535.44;;;7.25;60.46
6134;BME280;3098;42.678;23.364;2023-04-06T08:03:41;94549.22;;;8.29;57.14
6134;BME280;3098;42.678;23.364;2023-04-06T08:06:08;94553.31;;;9.36;55.57
6134;BME280;3098;42.678;23.364;2023-04-06T08:08:38;94548.72;;;9.19;54.29
6134;BME280;3098;42.678;23.364;2023-04-06T08:11:05;94533.34;;;8.82;53.51
6134;BME280;3098;42.678;23.364;2023-04-06T08:13:33;94382.13;;;8.72;50.86
6134;BME280;3098;42.678;23.364;2023-04-06T08:16:01;94445.41;;;8.29;51.36
6134;BME280;3098;42.678;23.364;2023-04-06T08:18:30;94455.97;;;8.59;52.09
6134;BME280;3098;42.678;23.364;2023-04-06T08:20:57;94553.94;;;9.42;51.36
6134;BME280;3098;42.678;23.364;2023-04-06T08:23:25;94560.47;;;9.36;50.02
6134;BME280;3098;42.678;23.364;2023-04-06T08:25:52;94415.56;;;7.31;50.74
6134;BME280;3098;42.678;23.364;2023-04-06T08:28:19;94562.50;;;8.38;51.63
6134;BME280;3098;42.678;23.364;2023-04-06T08:30:47;94503.88;;;8.66;49.84
6134;BME280;3098;42.678;23.364;2023-04-06T08:33:15;94550.53;;;9.02;50.22
6134;BME280;3098;42.678;23.364;2023-04-06T08:35:44;94546.66;;;9.73;48.02
6134;BME280;3098;42.678;23.364;2023-04-06T08:38:12;94549.94;;;10.04;46.95
6134;BME280;3098;42.678;23.364;2023-04-06T08:40:40;94543.88;;;9.78;46.96
6134;BME280;3098;42.678;23.364;2023-04-06T08:43:13;94439.50;;;9.62;45.88
6134;BME280;3098;42.678;23.364;2023-04-06T08:45:42;94490.72;;;9.49;46.26
6134;BME280;3098;42.678;23.364;2023-04-06T08:48:11;94540.44;;;9.95;46.67
6134;BME280;3098;42.678;23.364;2023-04-06T08:50:39;94546.81;;;8.72;48.82
6134;BME280;3098;42.678;23.364;2023-04-06T08:53:08;94545.56;;;8.70;50.25
6134;BME280;3098;42.678;23.364;2023-04-06T08:55:36;94376.44;;;9.47;46.64
6134;BME280;3098;42.678;23.364;2023-04-06T08:58:06;94529.53;;;9.62;45.38
6134;BME280;3098;42.678;23.364;2023-04-06T09:00:37;94490.06;;;8.39;48.82
6134;BME280;3098;42.678;23.364;2023-04-06T09:03:05;94393.78;;;8.23;48.64
6134;BME280;3098;42.678;23.364;2023-04-06T09:05:34;94527.34;;;9.72;47.23
6134;BME280;3098;42.678;23.364;2023-04-06T09:08:02;94481.38;;;9.94;44.81
6134;BME280;3098;42.678;23.364;2023-04-06T09:10:32;94464.72;;;8.16;47.57
6134;BME280;3098;42.678;23.364;2023-04-06T09:13:03;94532.13;;;8.97;48.26
6134;BME280;3098;42.678;23.364;2023-04-06T09:15:32;94383.50;;;8.21;47.67
6134;BME280;3098;42.678;23.364;2023-04-06T09:18:00;94489.16;;;9.31;46.44
6134;BME280;3098;42.678;23.364;2023-04-06T09:20:27;94507.31;;;8.36;47.94
6134;BME280;3098;42.678;23.364;2023-04-06T09:22:55;94534.03;;;9.53;46.91
6134;BME280;3098;42.678;23.364;2023-04-06T09:25:23;94542.31;;;9.12;46.25
6134;BME280;3098;42.678;23.364;2023-04-06T09:28:00;94530.66;;;9.13;45.81
6134;BME280;3098;42.678;23.364;2023-04-06T09:30:28;94526.63;;;8.01;49.81
6134;BME280;3098;42.678;23.364;2023-04-06T09:32:56;94517.34;;;8.26;49.34
6134;BME280;3098;42.678;23.364;2023-04-06T09:35:24;94438.66;;;8.93;47.43
6134;BME280;3098;42.678;23.364;2023-04-06T09:37:55;94526.41;;;8.64;48.64
6134;BME280;3098;42.678;23.364;2023-04-06T09:40:22;94527.66;;;9.06;48.02
6134;BME280;3098;42.678;23.364;2023-04-06T09:42:50;94526.81;;;8.27;49.74
6134;BME280;3098;42.678;23.364;2023-04-06T09:45:21;94525.06;;;8.44;49.08
6134;BME280;3098;42.678;23.364;2023-04-06T09:47:48;94474.09;;;8.22;49.50
6134;BME280;3098;42.678;23.364;2023-04-06T09:50:19;94480.19;;;9.01;47.88
6134;BME280;3098;42.678;23.364;2023-04-06T09:52:49;94538.56;;;10.47;44.40
6134;BME280;3098;42.678;23.364;2023-04-06T09:55:23;94492.97;;;11.49;42.95
6134;BME280;3098;42.678;23.364;2023-04-06T09:57:58;94415.13;;;10.20;42.54
6134;BME280;3098;42.678;23.364;2023-04-06T10:00:32;94498.56;;;11.07;43.14
6134;BME280;3098;42.678;23.364;2023-04-06T10:03:07;94476.50;;;11.15;41.19
6134;BME280;3098;42.678;23.364;2023-04-06T10:05:42;94457.81;;;10.27;41.87
6134;BME280;3098;42.678;23.364;2023-04-06T10:08:11;94539.78;;;9.63;43.68
6134;BME280;3098;42.678;23.364;2023-04-06T10:10:39;94441.91;;;8.98;44.07
6134;BME280;3098;42.678;23.364;2023-04-06T10:13:07;94529.50;;;8.88;45.41
6134;BME280;3098;42.678;23.364;2023-04-06T10:15:38;94413.69;;;7.76;47.15
6134;BME280;3098;42.678;23.364;2023-04-06T10:18:06;94534.56;;;8.01;48.32
6134;BME280;3098;42.678;23.364;2023-04-06T10:20:39;94459.94;;;7.15;49.42
6134;BME280;3098;42.678;23.364;2023-04-06T10:23:09;94481.78;;;6.80;50.17
6134;BME280;3098;42.678;23.364;2023-04-06T10:25:39;94532.09;;;7.33;50.53
6134;BME280;3098;42.678;23.364;2023-04-06T10:28:08;94520.13;;;7.00;50.64
6134;BME280;3098;42.678;23.364;2023-04-06T10:30:42;94371.22;;;5.61;52.14
6134;BME280;3098;42.678;23.364;2023-04-06T10:33:13;94378.50;;;5.96;52.54
6134;BME280;3098;42.678;23.364;2023-04-06T10:35:41;94395.72;;;6.21;52.54
6134;BME280;3098;42.678;23.364;2023-04-06T10:38:08;94473.84;;;6.80;52.13
6134;BME280;3098;42.678;23.364;2023-04-06T10:40:36;94529.06;;;7.75;49.97
6134;BME280;3098;42.678;23.364;2023-04-06T10:43:08;94514.88;;;8.07;48.83
6134;BME280;3098;42.678;23.364;2023-04-06T10:45:36;94510.91;;;7.24;50.23
6134;BME280;3098;42.678;23.364;2023-04-06T10:48:16;94516.22;;;6.97;51.47
6134;BME280;3098;42.678;23.364;2023-04-06T10:50:44;94443.41;;;6.60;50.76
6134;BME280;3098;42.678;23.364;2023-04-06T10:53:21;94441.72;;;7.63;49.58
6134;BME280;3098;42.678;23.364;2023-04-06T10:55:49;94465.97;;;7.65;49.40
6134;BME280;3098;42.678;23.364;2023-04-06T10:58:16;94286.59;;;6.63;49.23
6134;BME280;3098;42.678;23.364;2023-04-06T11:00:44;94505.88;;;8.08;49.21
6134;BME280;3098;42.678;23.364;2023-04-06T11:03:11;94499.63;;;8.48;48.22
6134;BME280;3098;42.678;23.364;2023-04-06T11:05:43;94509.38;;;9.27;46.48
6134;BME280;3098;42.678;23.364;2023-04-06T11:08:10;94515.34;;;7.87;47.83
6134;BME280;3098;42.678;23.364;2023-04-06T11:10:37;94475.41;;;6.94;49.88
6134;BME280;3098;42.678;23.364;2023-04-06T11:13:05;94515.72;;;7.22;51.92
6134;BME280;3098;42.678;23.364;2023-04-06T11:15:34;94503.97;;;7.64;49.51
6134;BME280;3098;42.678;23.364;2023-04-06T11:18:03;94430.19;;;7.01;50.16
6134;BME280;3098;42.678;23.364;2023-04-06T11:20:31;94418.44;;;6.71;50.82
6134;BME280;3098;42.678;23.364;2023-04-06T11:22:59;94478.63;;;7.05;50.67
6134;BME280;3098;42.678;23.364;2023-04-06T11:25:27;94502.66;;;7.04;50.23
6134;BME280;3098;42.678;23.364;2023-04-06T11:27:57;94498.44;;;7.16;50.75
6134;BME280;3098;42.678;23.364;2023-04-06T11:30:24;94384.47;;;6.56;50.51
6134;BME280;3098;42.678;23.364;2023-04-06T11:32:51;94256.09;;;5.85;50.13
6134;BME280;3098;42.678;23.364;2023-04-06T11:35:22;94474.53;;;6.99;50.76
6134;BME280;3098;42.678;23.364;2023-04-06T11:37:51;94491.47;;;7.34;49.96
6134;BME280;3098;42.678;23.364;2023-04-06T11:40:22;94484.06;;;7.22;50.63
6134;BME280;3098;42.678;23.364;2023-04-06T11:42:54;94478.31;;;7.20;50.73
6134;BME280;3098;42.678;23.364;2023-04-06T11:45:22;94482.03;;;7.06;50.04
6134;BME280;3098;42.678;23.364;2023-04-06T11:47:57;94478.53;;;6.97;51.74
6134;BME280;3098;42.678;23.364;2023-04-06T11:50:25;94394.34;;;6.23;51.49
6134;BME280;3098;42.678;23.364;2023-04-06T11:52:59;94343.00;;;5.80;52.73
6134;BME280;3098;42.678;23.364;2023-04-06T11:55:28;94329.16;;;4.96;54.48
6134;BME280;3098;42.678;23.364;2023-04-06T11:57:55;94488.59;;;5.75;55.99
6134;BME280;3098;42.678;23.364;2023-04-06T12:00:23;94476.44;;;5.61;56.74
6134;BME280;3098;42.678;23.364;2023-04-06T12:02:50;94457.41;;;5.50;57.50
6134;BME280;3098;42.678;23.364;2023-04-06T12:05:17;94475.53;;;5.52;57.83
6134;BME280;3098;42.678;23.364;2023-04-06T12:07:44;94419.13;;;5.07;58.43
6134;BME280;3098;42.678;23.364;2023-04-06T12:10:11;94424.94;;;5.04;58.27
6134;BME280;3098;42.678;23.364;2023-04-06T12:12:40;94394.19;;;4.86;57.91
6134;BME280;3098;42.678;23.364;2023-04-06T12:15:08;94464.00;;;5.48;58.04
6134;BME280;3098;42.678;23.364;2023-04-06T12:17:35;94447.03;;;5.59;58.40
6134;BME280;3098;42.678;23.364;2023-04-06T12:20:02;94438.75;;;5.65;57.44
6134;BME280;3098;42.678;23.364;2023-04-06T12:22:30;94417.25;;;5.77;56.67
6134;BME280;3098;42.678;23.364;2023-04-06T12:24:59;94347.06;;;5.27;56.29
6134;BME280;3098;42.678;23.364;2023-04-06T12:27:26;94433.53;;;5.47;57.74
6134;BME280;3098;42.678;23.364;2023-04-06T12:29:55;94283.59;;;4.31;58.40
6134;BME280;3098;42.678;23.364;2023-04-06T12:32:22;94423.25;;;5.13;58.58
6134;BME280;3098;42.678;23.364;2023-04-06T12:34:51;94380.50;;;5.07;58.13
6134;BME280;3098;42.678;23.364;2023-04-06T12:37:18;94461.50;;;5.75;57.63
6134;BME280;3098;42.678;23.364;2023-04-06T12:39:45;94440.03;;;5.68;56.83
6134;BME280;3098;42.678;23.364;2023-04-06T12:42:13;94421.91;;;5.48;55.61
6134;BME280;3098;42.678;23.364;2023-04-06T12:44:40;94422.44;;;5.50;56.07
6134;BME280;3098;42.678;23.364;2023-04-06T12:47:10;94457.34;;;5.88;56.17
6134;BME280;3098;42.678;23.364;2023-04-06T12:49:37;94421.47;;;5.59;55.30
6134;BME280;3098;42.678;23.364;2023-04-06T12:52:04;94456.63;;;6.01;55.35
6134;BME280;3098;42.678;23.364;2023-04-06T12:54:31;94450.59;;;5.82;55.65
6134;BME280;3098;42.678;23.364;2023-04-06T12:56:59;94397.28;;;5.44;55.28
6134;BME280;3098;42.678;23.364;2023-04-06T12:59:26;94438.09;;;5.41;56.93
6134;BME280;3098;42.678;23.364;2023-04-06T13:01:59;94349.44;;;5.09;57.00
6134;BME280;3098;42.678;23.364;2023-04-06T13:04:28;94362.50;;;5.14;56.72
6134;BME280;3098;42.678;23.364;2023-04-06T13:06:55;94439.88;;;5.78;56.53
6134;BME280;3098;42.678;23.364;2023-04-06T13:09:22;94447.81;;;5.92;56.76
6134;BME280;3098;42.678;23.364;2023-04-06T13:11:49;94436.94;;;5.79;56.51
6134;BME280;3098;42.678;23.364;2023-04-06T13:14:17;94430.97;;;5.93;56.45
6134;BME280;3098;42.678;23.364;2023-04-06T13:16:44;94353.75;;;5.51;56.31
6134;BME280;3098;42.678;23.364;2023-04-06T13:19:11;94367.72;;;5.65;56.12
6134;BME280;3098;42.678;23.364;2023-04-06T13:21:40;94408.19;;;5.83;56.55